sensor_id;sensor_type;location;lat;lon;timestamp;pressure;altitude;pressure_sealevel;temperature;humidity
13420;BME280;6781;58.440;15.470;2024-01-10T00:00:38;104412.56;;;-3.85;100.00
13420;BME280;6781;58.440;15.470;2024-01-10T00:03:05;104413.50;;;-3.83;100.00
13420;BME280;6781;58.440;15.470;2024-01-10T00:05:32;104418.56;;;-3.83;100.00
13420;BME280;6781;58.440;15.470;2024-01-10T00:07:59;104420.28;;;-3.82;100.00
13420;BME280;6781;58.440;15.470;2024-01-10T00:10:27;104410.88;;;-3.85;100.00
13420;BME280;6781;58.440;15.470;2024-01-10T00:12:54;104418.56;;;-3.83;100.00
13420;BME280;6781;58.440;15.470;2024-01-10T00:15:20;104414.34;;;-3.83;100.00
13420;BME280;6781;58.440;15.470;2024-01-10T00:17:47;104421.28;;;-3.79;100.00
13420;BME280;6781;58.440;15.470;2024-01-10T00:20:14;104428.84;;;-3.80;100.00
13420;BME280;6781;58.440;15.470;2024-01-10T00:22:41;104423.75;;;-3.80;100.00
13420;BME280;6781;58.440;15.470;2024-01-10T00:25:07;104424.69;;;-3.78;100.00
13420;BME280;6781;58.440;15.470;2024-01-10T00:27:36;104433.91;;;-3.80;100.00
13420;BME280;6781;58.440;15.470;2024-01-10T00:30:03;104425.38;;;-3.82;100.00
13420;BME280;6781;58.440;15.470;2024-01-10T00:32:30;104431.38;;;-3.80;100.00
13420;BME280;6781;58.440;15.470;2024-01-10T00:34:57;104427.09;;;-3.81;100.00
13420;BME280;6781;58.440;15.470;2024-01-10T00:37:24;104427.09;;;-3.81;100.00
13420;BME280;6781;58.440;15.470;2024-01-10T00:39:51;104436.50;;;-3.79;100.00
13420;BME280;6781;58.440;15.470;2024-01-10T00:42:17;104449.25;;;-3.77;100.00
13420;BME280;6781;58.440;15.470;2024-01-10T00:44:46;104438.25;;;-3.78;100.00
13420;BME280;6781;58.440;15.470;2024-01-10T00:47:12;104447.53;;;-3.78;100.00
13420;BME280;6781;58.440;15.470;2024-01-10T00:49:39;104453.31;;;-3.81;100.00
13420;BME280;6781;58.440;15.470;2024-01-10T00:52:06;104439.72;;;-3.83;100.00
13420;BME280;6781;58.440;15.470;2024-01-10T00:54:33;104439.72;;;-3.83;100.00
13420;BME280;6781;58.440;15.470;2024-01-10T00:57:00;104428.44;;;-3.89;100.00
13420;BME280;6781;58.440;15.470;2024-01-10T00:59:26;104450.47;;;-3.88;100.00
13420;BME280;6781;58.440;15.470;2024-01-10T01:01:54;104433.56;;;-3.88;100.00
13420;BME280;6781;58.440;15.470;2024-01-10T01:04:21;104422.31;;;-3.95;100.00
13420;BME280;6781;58.440;15.470;2024-01-10T01:06:48;104426.56;;;-3.94;100.00
13420;BME280;6781;58.440;15.470;2024-01-10T01:09:15;104428.97;;;-3.97;100.00
13420;BME280;6781;58.440;15.470;2024-01-10T01:11:41;104427.38;;;-3.95;100.00
13420;BME280;6781;58.440;15.470;2024-01-10T01:14:08;104429.09;;;-3.94;100.00
13420;BME280;6781;58.440;15.470;2024-01-10T01:16:35;104421.09;;;-4.03;100.00
13420;BME280;6781;58.440;15.470;2024-01-10T01:19:03;104417.63;;;-4.05;100.00
13420;BME280;6781;58.440;15.470;2024-01-10T01:21:30;104421.09;;;-4.03;100.00
13420;BME280;6781;58.440;15.470;2024-01-10T01:23:57;104422.56;;;-4.08;100.00
13420;BME280;6781;58.440;15.470;2024-01-10T01:26:24;104420.84;;;-4.09;100.00
13420;BME280;6781;58.440;15.470;2024-01-10T01:28:50;104432.56;;;-4.11;100.00
13420;BME280;6781;58.440;15.470;2024-01-10T01:31:17;104425.31;;;-4.03;100.00
13420;BME280;6781;58.440;15.470;2024-01-10T01:33:44;104429.50;;;-4.04;100.00
13420;BME280;6781;58.440;15.470;2024-01-10T01:36:12;104432.84;;;-4.05;100.00
13420;BME280;6781;58.440;15.470;2024-01-10T01:38:39;104432.69;;;-4.08;100.00
13420;BME280;6781;58.440;15.470;2024-01-10T01:41:06;104425.75;;;-4.12;100.00
13420;BME280;6781;58.440;15.470;2024-01-10T01:43:33;104421.63;;;-4.10;100.00
13420;BME280;6781;58.440;15.470;2024-01-10T01:46:00;104426.69;;;-4.10;100.00
13420;BME280;6781;58.440;15.470;2024-01-10T01:48:27;104420.56;;;-4.15;100.00
13420;BME280;6781;58.440;15.470;2024-01-10T01:50:55;104432.44;;;-4.14;100.00
13420;BME280;6781;58.440;15.470;2024-01-10T01:53:24;104423.75;;;-4.19;100.00
13420;BME280;6781;58.440;15.470;2024-01-10T01:55:51;104410.00;;;-4.24;100.00
13420;BME280;6781;58.440;15.470;2024-01-10T01:58:18;104416.81;;;-4.23;100.00
13420;BME280;6781;58.440;15.470;2024-01-10T02:00:46;104412.75;;;-4.19;100.00
13420;BME280;6781;58.440;15.470;2024-01-10T02:03:12;104397.41;;;-4.22;100.00
13420;BME280;6781;58.440;15.470;2024-01-10T02:05:38;104404.00;;;-4.26;100.00
13420;BME280;6781;58.440;15.470;2024-01-10T02:08:05;104401.47;;;-4.26;100.00
13420;BME280;6781;58.440;15.470;2024-01-10T02:10:34;104395.09;;;-4.18;100.00
13420;BME280;6781;58.440;15.470;2024-01-10T02:13:01;104389.00;;;-4.21;100.00
13420;BME280;6781;58.440;15.470;2024-01-10T02:15:27;104382.81;;;-4.28;100.00
13420;BME280;6781;58.440;15.470;2024-01-10T02:17:54;104391.06;;;-4.32;100.00
13420;BME280;6781;58.440;15.470;2024-01-10T02:20:21;104387.88;;;-4.28;100.00
13420;BME280;6781;58.440;15.470;2024-01-10T02:22:48;104395.63;;;-4.25;100.00
13420;BME280;6781;58.440;15.470;2024-01-10T02:25:17;104383.69;;;-4.28;100.00
13420;BME280;6781;58.440;15.470;2024-01-10T02:27:44;104398.00;;;-4.28;100.00
13420;BME280;6781;58.440;15.470;2024-01-10T02:30:11;104387.47;;;-4.37;100.00
13420;BME280;6781;58.440;15.470;2024-01-10T02:32:37;104391.75;;;-4.36;100.00
13420;BME280;6781;58.440;15.470;2024-01-10T02:35:04;104390.94;;;-4.35;100.00
13420;BME280;6781;58.440;15.470;2024-01-10T02:37:31;104391.06;;;-4.32;100.00
13420;BME280;6781;58.440;15.470;2024-01-10T02:39:58;104384.13;;;-4.36;100.00
13420;BME280;6781;58.440;15.470;2024-01-10T02:42:27;104384.81;;;-4.40;100.00
13420;BME280;6781;58.440;15.470;2024-01-10T02:44:55;104379.81;;;-4.39;100.00
13420;BME280;6781;58.440;15.470;2024-01-10T02:47:22;104371.34;;;-4.39;100.00
13420;BME280;6781;58.440;15.470;2024-01-10T02:49:49;104374.66;;;-4.40;100.00
13420;BME280;6781;58.440;15.470;2024-01-10T02:52:15;104384.00;;;-4.39;100.00
13420;BME280;6781;58.440;15.470;2024-01-10T02:54:44;104385.59;;;-4.41;100.00
13420;BME280;6781;58.440;15.470;2024-01-10T02:57:11;104387.06;;;-4.46;100.00
13420;BME280;6781;58.440;15.470;2024-01-10T02:59:39;104394.28;;;-4.36;100.00
13420;BME280;6781;58.440;15.470;2024-01-10T03:04:41;104343.97;;;-4.66;100.00
13420;BME280;6781;58.440;15.470;2024-01-10T03:07:09;104377.00;;;-4.45;100.00
13420;BME280;6781;58.440;15.470;2024-01-10T03:09:36;104377.84;;;-4.44;100.00
13420;BME280;6781;58.440;15.470;2024-01-10T03:12:03;104375.06;;;-4.50;100.00
13420;BME280;6781;58.440;15.470;2024-01-10T03:14:30;104377.72;;;-4.47;100.00
13420;BME280;6781;58.440;15.470;2024-01-10T03:16:58;104380.13;;;-4.50;100.00
13420;BME280;6781;58.440;15.470;2024-01-10T03:19:25;104381.56;;;-4.55;100.00
13420;BME280;6781;58.440;15.470;2024-01-10T03:21:52;104381.56;;;-4.55;100.00
13420;BME280;6781;58.440;15.470;2024-01-10T03:24:19;104393.38;;;-4.56;100.00
13420;BME280;6781;58.440;15.470;2024-01-10T03:26:45;104383.25;;;-4.56;100.00
13420;BME280;6781;58.440;15.470;2024-01-10T03:29:13;104384.91;;;-4.56;100.00
13420;BME280;6781;58.440;15.470;2024-01-10T03:31:39;104381.44;;;-4.59;100.00
13420;BME280;6781;58.440;15.470;2024-01-10T03:34:08;104391.50;;;-4.60;100.00
13420;BME280;6781;58.440;15.470;2024-01-10T03:36:34;104381.44;;;-4.59;100.00
13420;BME280;6781;58.440;15.470;2024-01-10T03:39:01;104377.97;;;-4.61;100.00
13420;BME280;6781;58.440;15.470;2024-01-10T03:41:28;104377.81;;;-4.64;100.00
13420;BME280;6781;58.440;15.470;2024-01-10T03:43:55;104267.97;;;-5.23;100.00
13420;BME280;6781;58.440;15.470;2024-01-10T03:46:21;104369.28;;;-4.66;100.00
13420;BME280;6781;58.440;15.470;2024-01-10T03:48:48;104376.16;;;-4.63;100.00
13420;BME280;6781;58.440;15.470;2024-01-10T03:51:17;104377.09;;;-4.61;100.00
13420;BME280;6781;58.440;15.470;2024-01-10T03:53:44;104379.69;;;-4.60;100.00
13420;BME280;6781;58.440;15.470;2024-01-10T03:56:11;104389.81;;;-4.60;100.00
13420;BME280;6781;58.440;15.470;2024-01-10T03:58:39;104389.69;;;-4.63;100.00
13420;BME280;6781;58.440;15.470;2024-01-10T04:01:05;104379.28;;;-4.69;100.00
13420;BME280;6781;58.440;15.470;2024-01-10T04:03:32;104375.66;;;-4.74;100.00
13420;BME280;6781;58.440;15.470;2024-01-10T04:06:00;104362.88;;;-4.77;100.00
13420;BME280;6781;58.440;15.470;2024-01-10T04:08:28;104375.75;;;-4.72;100.00
13420;BME280;6781;58.440;15.470;2024-01-10T04:10:54;104374.88;;;-4.73;100.00
13420;BME280;6781;58.440;15.470;2024-01-10T04:13:21;104377.41;;;-4.73;100.00
13420;BME280;6781;58.440;15.470;2024-01-10T04:15:48;104384.34;;;-4.69;100.00
13420;BME280;6781;58.440;15.470;2024-01-10T04:18:15;104377.41;;;-4.73;100.00
13420;BME280;6781;58.440;15.470;2024-01-10T04:20:42;104385.94;;;-4.71;100.00
13420;BME280;6781;58.440;15.470;2024-01-10T04:23:09;104379.16;;;-4.72;100.00
13420;BME280;6781;58.440;15.470;2024-01-10T04:25:37;104379.66;;;-4.79;100.00
13420;BME280;6781;58.440;15.470;2024-01-10T04:28:04;104385.78;;;-4.74;100.00
13420;BME280;6781;58.440;15.470;2024-01-10T04:30:31;104393.75;;;-4.66;100.00
13420;BME280;6781;58.440;15.470;2024-01-10T04:32:58;104376.41;;;-4.76;100.00
13420;BME280;6781;58.440;15.470;2024-01-10T04:35:24;104376.47;;;-4.75;100.00
13420;BME280;6781;58.440;15.470;2024-01-10T04:37:51;104384.13;;;-4.73;100.00
13420;BME280;6781;58.440;15.470;2024-01-10T04:40:18;104388.25;;;-4.75;100.00
13420;BME280;6781;58.440;15.470;2024-01-10T04:42:46;104379.00;;;-4.75;100.00
13420;BME280;6781;58.440;15.470;2024-01-10T04:45:13;104378.69;;;-4.63;100.00
13420;BME280;6781;58.440;15.470;2024-01-10T04:47:40;104372.63;;;-4.67;100.00
13420;BME280;6781;58.440;15.470;2024-01-10T04:50:07;104370.88;;;-4.68;100.00
13420;BME280;6781;58.440;15.470;2024-01-10T04:52:34;104360.34;;;-4.77;100.00
13420;BME280;6781;58.440;15.470;2024-01-10T04:55:00;104356.16;;;-4.76;100.00
13420;BME280;6781;58.440;15.470;2024-01-10T04:57:28;104345.75;;;-4.82;100.00
13420;BME280;6781;58.440;15.470;2024-01-10T04:59:56;104357.00;;;-4.76;100.00
13420;BME280;6781;58.440;15.470;2024-01-10T05:02:23;104365.69;;;-4.71;100.00
13420;BME280;6781;58.440;15.470;2024-01-10T05:04:50;104359.03;;;-4.69;100.00
13420;BME280;6781;58.440;15.470;2024-01-10T05:07:17;104350.78;;;-4.65;100.00
13420;BME280;6781;58.440;15.470;2024-01-10T05:09:44;104338.03;;;-4.66;100.00
13420;BME280;6781;58.440;15.470;2024-01-10T05:12:11;104310.84;;;-4.70;100.00
13420;BME280;6781;58.440;15.470;2024-01-10T05:14:37;104323.03;;;-4.81;100.00
13420;BME280;6781;58.440;15.470;2024-01-10T05:17:06;104322.16;;;-4.81;100.00
13420;BME280;6781;58.440;15.470;2024-01-10T05:19:33;104310.91;;;-4.88;100.00
13420;BME280;6781;58.440;15.470;2024-01-10T05:21:59;104313.44;;;-4.88;100.00
13420;BME280;6781;58.440;15.470;2024-01-10T05:24:26;104317.03;;;-4.83;100.00
13420;BME280;6781;58.440;15.470;2024-01-10T05:26:53;104324.03;;;-4.77;100.00
13420;BME280;6781;58.440;15.470;2024-01-10T05:29:20;104326.63;;;-4.76;100.00
13420;BME280;6781;58.440;15.470;2024-01-10T05:31:49;104327.56;;;-4.74;100.00
13420;BME280;6781;58.440;15.470;2024-01-10T05:34:17;104315.63;;;-4.76;100.00
13420;BME280;6781;58.440;15.470;2024-01-10T05:36:44;104317.44;;;-4.74;100.00
13420;BME280;6781;58.440;15.470;2024-01-10T05:39:10;104305.44;;;-4.78;100.00
13420;BME280;6781;58.440;15.470;2024-01-10T05:41:41;104308.56;;;-4.83;100.00
13420;BME280;6781;58.440;15.470;2024-01-10T05:44:08;104309.56;;;-4.80;100.00
13420;BME280;6781;58.440;15.470;2024-01-10T05:46:35;104306.53;;;-4.73;100.00
13420;BME280;6781;58.440;15.470;2024-01-10T05:49:02;104308.41;;;-4.69;100.00
13420;BME280;6781;58.440;15.470;2024-01-10T05:51:31;104291.84;;;-4.80;100.00
13420;BME280;6781;58.440;15.470;2024-01-10T05:53:58;104295.97;;;-4.82;100.00
13420;BME280;6781;58.440;15.470;2024-01-10T05:56:25;104288.78;;;-4.92;100.00
13420;BME280;6781;58.440;15.470;2024-01-10T05:58:52;104297.22;;;-4.92;100.00
13420;BME280;6781;58.440;15.470;2024-01-10T06:01:19;104311.91;;;-4.84;100.00
13420;BME280;6781;58.440;15.470;2024-01-10T06:03:46;104314.78;;;-4.77;100.00
13420;BME280;6781;58.440;15.470;2024-01-10T06:06:13;104327.91;;;-4.66;100.00
13420;BME280;6781;58.440;15.470;2024-01-10T06:08:41;104307.66;;;-4.66;100.00
13420;BME280;6781;58.440;15.470;2024-01-10T06:11:08;104299.72;;;-4.74;100.00
13420;BME280;6781;58.440;15.470;2024-01-10T06:13:35;104287.59;;;-4.81;100.00
13420;BME280;6781;58.440;15.470;2024-01-10T06:16:02;104282.13;;;-4.90;100.00
13420;BME280;6781;58.440;15.470;2024-01-10T06:18:29;104289.50;;;-4.95;100.00
13420;BME280;6781;58.440;15.470;2024-01-10T06:20:56;104295.28;;;-4.97;100.00
13420;BME280;6781;58.440;15.470;2024-01-10T06:23:23;104311.31;;;-4.79;100.00
13420;BME280;6781;58.440;15.470;2024-01-10T06:25:51;104308.25;;;-4.72;100.00
13420;BME280;6781;58.440;15.470;2024-01-10T06:28:19;104305.13;;;-4.66;100.00
13420;BME280;6781;58.440;15.470;2024-01-10T06:30:46;104295.72;;;-4.69;100.00
13420;BME280;6781;58.440;15.470;2024-01-10T06:33:13;104298.25;;;-4.69;100.00
13420;BME280;6781;58.440;15.470;2024-01-10T06:35:40;104306.00;;;-4.66;100.00
13420;BME280;6781;58.440;15.470;2024-01-10T06:38:08;104292.94;;;-4.75;100.00
13420;BME280;6781;58.440;15.470;2024-01-10T06:40:35;104297.84;;;-4.78;100.00
13420;BME280;6781;58.440;15.470;2024-01-10T06:43:04;104300.59;;;-4.73;100.00
13420;BME280;6781;58.440;15.470;2024-01-10T06:45:33;104279.06;;;-4.83;100.00
13420;BME280;6781;58.440;15.470;2024-01-10T06:48:00;104286.19;;;-4.74;100.00
13420;BME280;6781;58.440;15.470;2024-01-10T06:50:27;104288.81;;;-4.73;100.00
13420;BME280;6781;58.440;15.470;2024-01-10T06:52:54;104280.34;;;-4.73;100.00
13420;BME280;6781;58.440;15.470;2024-01-10T06:55:21;104273.00;;;-4.86;100.00
13420;BME280;6781;58.440;15.470;2024-01-10T06:57:49;104268.59;;;-4.91;100.00
13420;BME280;6781;58.440;15.470;2024-01-10T07:00:19;104274.59;;;-4.88;100.00
13420;BME280;6781;58.440;15.470;2024-01-10T07:02:46;104275.75;;;-4.82;100.00
13420;BME280;6781;58.440;15.470;2024-01-10T07:05:14;104272.53;;;-4.78;100.00
13420;BME280;6781;58.440;15.470;2024-01-10T07:07:41;104266.00;;;-4.73;100.00
13420;BME280;6781;58.440;15.470;2024-01-10T07:10:07;104271.94;;;-4.72;100.00
13420;BME280;6781;58.440;15.470;2024-01-10T07:12:35;104260.41;;;-4.85;100.00
13420;BME280;6781;58.440;15.470;2024-01-10T07:15:02;104240.13;;;-5.04;100.00
13420;BME280;6781;58.440;15.470;2024-01-10T07:17:31;104268.94;;;-4.83;100.00
13420;BME280;6781;58.440;15.470;2024-01-10T07:19:58;104279.34;;;-4.77;100.00
13420;BME280;6781;58.440;15.470;2024-01-10T07:22:25;104270.22;;;-4.73;100.00
13420;BME280;6781;58.440;15.470;2024-01-10T07:24:52;104272.81;;;-4.72;100.00
13420;BME280;6781;58.440;15.470;2024-01-10T07:27:18;104261.63;;;-4.77;100.00
13420;BME280;6781;58.440;15.470;2024-01-10T07:29:45;104253.69;;;-4.84;100.00
13420;BME280;6781;58.440;15.470;2024-01-10T07:32:12;104252.88;;;-4.83;100.00
13420;BME280;6781;58.440;15.470;2024-01-10T07:34:40;104252.03;;;-4.84;100.00
13420;BME280;6781;58.440;15.470;2024-01-10T07:37:07;104246.28;;;-4.80;100.00
13420;BME280;6781;58.440;15.470;2024-01-10T07:39:36;104226.44;;;-4.90;100.00
13420;BME280;6781;58.440;15.470;2024-01-10T07:42:03;104243.75;;;-4.80;100.00
13420;BME280;6781;58.440;15.470;2024-01-10T07:44:30;104231.50;;;-4.90;100.00
13420;BME280;6781;58.440;15.470;2024-01-10T07:46:56;104238.28;;;-4.89;100.00
13420;BME280;6781;58.440;15.470;2024-01-10T07:49:23;104234.56;;;-4.97;100.00
13420;BME280;6781;58.440;15.470;2024-01-10T07:51:52;104233.75;;;-4.96;100.00
13420;BME280;6781;58.440;15.470;2024-01-10T07:54:19;104239.75;;;-4.94;100.00
13420;BME280;6781;58.440;15.470;2024-01-10T07:56:46;104243.34;;;-4.89;100.00
13420;BME280;6781;58.440;15.470;2024-01-10T07:59:13;104235.75;;;-4.89;100.00
13420;BME280;6781;58.440;15.470;2024-01-10T08:01:43;104249.63;;;-4.81;100.00
13420;BME280;6781;58.440;15.470;2024-01-10T08:04:10;104239.88;;;-4.91;100.00
13420;BME280;6781;58.440;15.470;2024-01-10T08:06:36;104225.31;;;-4.97;100.00
13420;BME280;6781;58.440;15.470;2024-01-10T08:09:04;104229.50;;;-4.97;100.00
13420;BME280;6781;58.440;15.470;2024-01-10T08:11:31;104227.91;;;-4.95;100.00
13420;BME280;6781;58.440;15.470;2024-01-10T08:14:00;104236.44;;;-4.93;100.00
13420;BME280;6781;58.440;15.470;2024-01-10T08:16:26;104234.56;;;-4.97;100.00
13420;BME280;6781;58.440;15.470;2024-01-10T08:18:53;104240.03;;;-4.88;100.00
13420;BME280;6781;58.440;15.470;2024-01-10T08:21:20;104236.84;;;-4.84;100.00
13420;BME280;6781;58.440;15.470;2024-01-10T08:23:47;104122.50;;;-5.52;100.00
13420;BME280;6781;58.440;15.470;2024-01-10T08:26:15;104233.09;;;-4.92;100.00
13420;BME280;6781;58.440;15.470;2024-01-10T08:28:42;104246.88;;;-4.85;100.00
13420;BME280;6781;58.440;15.470;2024-01-10T08:31:09;104272.53;;;-4.78;100.00
13420;BME280;6781;58.440;15.470;2024-01-10T08:33:37;104262.28;;;-4.81;100.00
13420;BME280;6781;58.440;15.470;2024-01-10T08:36:04;104273.47;;;-4.76;100.00
13420;BME280;6781;58.440;15.470;2024-01-10T08:38:31;104282.94;;;-4.72;100.00
13420;BME280;6781;58.440;15.470;2024-01-10T08:40:58;104276.00;;;-4.76;100.00
13420;BME280;6781;58.440;15.470;2024-01-10T08:43:26;104279.47;;;-4.74;100.00
13420;BME280;6781;58.440;15.470;2024-01-10T08:45:53;104267.47;;;-4.78;100.00
13420;BME280;6781;58.440;15.470;2024-01-10T08:48:20;104264.75;;;-4.82;100.00
13420;BME280;6781;58.440;15.470;2024-01-10T08:50:47;104267.34;;;-4.81;100.00
13420;BME280;6781;58.440;15.470;2024-01-10T08:53:13;104260.28;;;-4.88;100.00
13420;BME280;6781;58.440;15.470;2024-01-10T08:55:41;104274.41;;;-4.74;100.00
13420;BME280;6781;58.440;15.470;2024-01-10T08:58:08;104280.69;;;-4.66;100.00
13420;BME280;6781;58.440;15.470;2024-01-10T09:00:36;104295.47;;;-4.55;100.00
13420;BME280;6781;58.440;15.470;2024-01-10T09:03:03;104273.94;;;-4.65;100.00
13420;BME280;6781;58.440;15.470;2024-01-10T09:05:30;104276.41;;;-4.67;100.00
13420;BME280;6781;58.440;15.470;2024-01-10T09:07:57;104267.88;;;-4.69;100.00
13420;BME280;6781;58.440;15.470;2024-01-10T09:10:25;104259.22;;;-4.74;100.00
13420;BME280;6781;58.440;15.470;2024-01-10T09:12:53;104283.47;;;-4.60;100.00
13420;BME280;6781;58.440;15.470;2024-01-10T09:15:20;104293.88;;;-4.53;100.00
13420;BME280;6781;58.440;15.470;2024-01-10T09:17:48;104295.47;;;-4.55;100.00
13420;BME280;6781;58.440;15.470;2024-01-10T09:20:15;104294.16;;;-4.47;100.00
13420;BME280;6781;58.440;15.470;2024-01-10T09:22:42;104286.81;;;-4.41;100.00
13420;BME280;6781;58.440;15.470;2024-01-10T09:25:09;104279.34;;;-4.38;100.00
13420;BME280;6781;58.440;15.470;2024-01-10T09:27:38;104277.22;;;-4.48;100.00
13420;BME280;6781;58.440;15.470;2024-01-10T09:30:06;104279.88;;;-4.45;100.00
13420;BME280;6781;58.440;15.470;2024-01-10T09:32:34;104272.94;;;-4.49;100.00
13420;BME280;6781;58.440;15.470;2024-01-10T09:35:02;104282.28;;;-4.48;100.00
13420;BME280;6781;58.440;15.470;2024-01-10T09:37:29;104287.34;;;-4.48;100.00
13420;BME280;6781;58.440;15.470;2024-01-10T09:39:57;104287.41;;;-4.47;100.00
13420;BME280;6781;58.440;15.470;2024-01-10T09:42:23;104299.47;;;-4.41;100.00
13420;BME280;6781;58.440;15.470;2024-01-10T09:44:50;104287.47;;;-4.45;100.00
13420;BME280;6781;58.440;15.470;2024-01-10T09:47:18;104292.53;;;-4.45;100.00
13420;BME280;6781;58.440;15.470;2024-01-10T09:49:46;104285.75;;;-4.46;100.00
13420;BME280;6781;58.440;15.470;2024-01-10T09:52:16;104289.22;;;-4.44;100.00
13420;BME280;6781;58.440;15.470;2024-01-10T09:54:46;104298.00;;;-4.36;100.00
13420;BME280;6781;58.440;15.470;2024-01-10T09:57:14;104299.75;;;-4.35;100.00
13420;BME280;6781;58.440;15.470;2024-01-10T09:59:41;104292.94;;;-4.36;100.00
13420;BME280;6781;58.440;15.470;2024-01-10T10:02:09;104275.75;;;-4.43;100.00
13420;BME280;6781;58.440;15.470;2024-01-10T10:04:35;104280.22;;;-4.38;100.00
13420;BME280;6781;58.440;15.470;2024-01-10T10:07:04;104279.47;;;-4.35;100.00
13420;BME280;6781;58.440;15.470;2024-01-10T10:09:33;104272.81;;;-4.33;100.00
13420;BME280;6781;58.440;15.470;2024-01-10T10:11:59;104265.34;;;-4.30;100.00
13420;BME280;6781;58.440;15.470;2024-01-10T10:14:28;104273.06;;;-4.27;100.00
13420;BME280;6781;58.440;15.470;2024-01-10T10:16:55;104274.06;;;-4.23;100.00
13420;BME280;6781;58.440;15.470;2024-01-10T10:19:25;104275.06;;;-4.20;100.00
13420;BME280;6781;58.440;15.470;2024-01-10T10:21:52;104275.31;;;-4.14;100.00
13420;BME280;6781;58.440;15.470;2024-01-10T10:24:18;104284.09;;;-4.06;100.00
13420;BME280;6781;58.440;15.470;2024-01-10T10:26:48;104284.22;;;-4.03;100.00
13420;BME280;6781;58.440;15.470;2024-01-10T10:29:17;104274.09;;;-4.03;100.00
13420;BME280;6781;58.440;15.470;2024-01-10T10:31:43;104281.16;;;-3.96;100.00
13420;BME280;6781;58.440;15.470;2024-01-10T10:34:13;104284.69;;;-3.92;100.00
13420;BME280;6781;58.440;15.470;2024-01-10T10:36:47;104289.81;;;-3.90;100.00
13420;BME280;6781;58.440;15.470;2024-01-10T10:39:15;104296.69;;;-3.88;100.00
13420;BME280;6781;58.440;15.470;2024-01-10T10:41:42;104300.06;;;-3.87;100.00
13420;BME280;6781;58.440;15.470;2024-01-10T10:44:11;104296.13;;;-3.81;100.00
13420;BME280;6781;58.440;15.470;2024-01-10T10:46:39;104286.84;;;-3.80;100.00
13420;BME280;6781;58.440;15.470;2024-01-10T10:49:09;104300.56;;;-3.75;100.00
13420;BME280;6781;58.440;15.470;2024-01-10T10:51:38;104304.16;;;-3.70;100.00
13420;BME280;6781;58.440;15.470;2024-01-10T10:54:05;104314.31;;;-3.70;100.00
13420;BME280;6781;58.440;15.470;2024-01-10T10:56:32;104318.69;;;-3.66;100.00
13420;BME280;6781;58.440;15.470;2024-01-10T10:59:00;104311.84;;;-3.69;100.00
13420;BME280;6781;58.440;15.470;2024-01-10T11:01:29;104318.50;;;-3.71;100.00
13420;BME280;6781;58.440;15.470;2024-01-10T11:03:56;104322.97;;;-3.65;100.00
13420;BME280;6781;58.440;15.470;2024-01-10T11:06:24;104321.25;;;-3.66;100.00
13420;BME280;6781;58.440;15.470;2024-01-10T11:08:52;104316.16;;;-3.66;100.00
13420;BME280;6781;58.440;15.470;2024-01-10T11:11:22;104317.16;;;-3.63;100.00
13420;BME280;6781;58.440;15.470;2024-01-10T11:14:00;104304.41;;;-3.64;100.00
13420;BME280;6781;58.440;15.470;2024-01-10T11:19:19;104309.06;;;-3.54;100.00
13420;BME280;6781;58.440;15.470;2024-01-10T11:21:55;104310.09;;;-3.49;100.00
13420;BME280;6781;58.440;15.470;2024-01-10T11:24:29;104311.22;;;-3.41;100.00
13420;BME280;6781;58.440;15.470;2024-01-10T11:27:06;104298.66;;;-3.38;100.00
13420;BME280;6781;58.440;15.470;2024-01-10T11:29:32;104305.47;;;-3.37;100.00
13420;BME280;6781;58.440;15.470;2024-01-10T11:31:59;104304.66;;;-3.36;100.00
13420;BME280;6781;58.440;15.470;2024-01-10T11:34:28;104305.91;;;-3.26;100.00
13420;BME280;6781;58.440;15.470;2024-01-10T11:37:11;104298.91;;;-3.32;100.00
13420;BME280;6781;58.440;15.470;2024-01-10T11:39:40;104306.63;;;-3.29;100.00
13420;BME280;6781;58.440;15.470;2024-01-10T11:42:07;104312.75;;;-3.23;100.00
13420;BME280;6781;58.440;15.470;2024-01-10T11:44:34;104308.56;;;-3.23;100.00
13420;BME280;6781;58.440;15.470;2024-01-10T11:47:12;104312.88;;;-3.20;100.00
13420;BME280;6781;58.440;15.470;2024-01-10T11:49:41;104303.47;;;-3.23;100.00
13420;BME280;6781;58.440;15.470;2024-01-10T11:52:20;104291.19;;;-3.12;100.00
13420;BME280;6781;58.440;15.470;2024-01-10T11:54:47;104287.91;;;-3.10;100.00
13420;BME280;6781;58.440;15.470;2024-01-10T11:57:18;104286.47;;;-3.03;100.00
13420;BME280;6781;58.440;15.470;2024-01-10T11:59:48;104271.13;;;-3.06;100.00
13420;BME280;6781;58.440;15.470;2024-01-10T12:02:16;104271.34;;;-3.00;100.00
13420;BME280;6781;58.440;15.470;2024-01-10T12:04:45;104276.44;;;-3.00;100.00
13420;BME280;6781;58.440;15.470;2024-01-10T12:07:11;104273.94;;;-2.99;100.00
13420;BME280;6781;58.440;15.470;2024-01-10T12:09:39;104274.06;;;-2.96;100.00
13420;BME280;6781;58.440;15.470;2024-01-10T12:12:07;104274.97;;;-2.93;100.00
13420;BME280;6781;58.440;15.470;2024-01-10T12:14:34;104276.59;;;-2.96;100.00
13420;BME280;6781;58.440;15.470;2024-01-10T12:17:02;104274.91;;;-2.95;100.00
13420;BME280;6781;58.440;15.470;2024-01-10T12:19:29;104264.44;;;-3.04;100.00
13420;BME280;6781;58.440;15.470;2024-01-10T12:21:58;104247.47;;;-3.05;100.00
13420;BME280;6781;58.440;15.470;2024-01-10T12:24:26;104252.88;;;-2.96;100.00
13420;BME280;6781;58.440;15.470;2024-01-10T12:26:54;104265.75;;;-2.91;100.00
13420;BME280;6781;58.440;15.470;2024-01-10T12:29:21;104261.31;;;-2.97;100.00
13420;BME280;6781;58.440;15.470;2024-01-10T12:31:50;104266.59;;;-2.91;100.00
13420;BME280;6781;58.440;15.470;2024-01-10T12:34:17;104277.97;;;-2.81;100.00
13420;BME280;6781;58.440;15.470;2024-01-10T12:36:44;104280.44;;;-2.83;100.00
13420;BME280;6781;58.440;15.470;2024-01-10T12:39:13;104271.69;;;-2.91;100.00
13420;BME280;6781;58.440;15.470;2024-01-10T12:41:40;104271.00;;;-2.87;100.00
13420;BME280;6781;58.440;15.470;2024-01-10T12:44:09;104272.03;;;-2.82;100.00
13420;BME280;6781;58.440;15.470;2024-01-10T12:46:37;104263.72;;;-2.78;100.00